Time;durP1;ratioP1;P1;durP2;ratioP2;P2;SDS_P1;SDS_P2;PMS_P1;PMS_P2;Temp;Humidity;BMP_temperature;BMP_pressure;BME280_temperature;BME280_humidity;BME280_pressure;Samples;Min_cycle;Max_cycle;Signal;HPM_P1;HPM_P2
2021/12/10 05:00:36;;;;;;;16.27;5.20;;;0.60;99.70;;;;;;5054409;28;20331;-59
2021/12/10 05:03:05;;;;;;;12.00;4.80;;;0.70;99.70;;;;;;5054453;28;20201;-57
2021/12/10 05:05:32;;;;;;;10.87;4.60;;;0.60;99.70;;;;;;5053972;28;20467;-59
2021/12/10 05:07:59;;;;;;;10.83;4.70;;;0.50;99.70;;;;;;5054079;28;20444;-57
2021/12/10 05:10:26;;;;;;;15.40;5.70;;;0.40;99.70;;;;;;5054044;28;20493;-61
2021/12/10 05:12:53;;;;;;;12.40;4.73;;;0.40;99.70;;;;;;5054267;28;20451;-63
2021/12/10 05:15:23;;;;;;;12.10;4.87;;;0.50;99.70;;;;;;5053840;28;20471;-60
2021/12/10 05:17:53;;;;;;;14.10;6.40;;;0.50;99.70;;;;;;5054325;28;20443;-59
2021/12/10 05:20:22;;;;;;;13.03;4.87;;;0.60;99.70;;;;;;5053739;28;20487;-57
2021/12/10 05:22:50;;;;;;;11.63;4.63;;;0.50;99.70;;;;;;5053973;28;20530;-64
2021/12/10 05:25:18;;;;;;;13.40;5.03;;;0.50;99.70;;;;;;5053399;28;20525;-58
2021/12/10 05:27:45;;;;;;;10.60;4.87;;;0.40;99.70;;;;;;5053924;28;20454;-60
2021/12/10 05:30:17;;;;;;;14.37;4.70;;;0.30;99.70;;;;;;5054037;28;20436;-60
2021/12/10 05:32:44;;;;;;;16.53;5.60;;;0.30;99.70;;;;;;5053879;28;20501;-61
2021/12/10 05:35:13;;;;;;;13.20;5.60;;;0.40;99.70;;;;;;5053609;28;20856;-57
2021/12/10 05:37:40;;;;;;;14.27;5.27;;;0.50;99.70;;;;;;5054049;28;20898;-60
2021/12/10 05:40:10;;;;;;;14.37;5.13;;;0.40;99.70;;;;;;5053871;28;20483;-62
2021/12/10 05:42:37;;;;;;;10.97;5.00;;;0.50;99.70;;;;;;5053715;28;20455;-58
2021/12/10 05:45:05;;;;;;;12.10;5.43;;;0.70;99.70;;;;;;5053533;28;20456;-57
2021/12/10 05:47:31;;;;;;;12.37;5.20;;;0.70;99.70;;;;;;5053512;28;20448;-57
2021/12/10 05:49:58;;;;;;;11.63;5.20;;;0.50;99.70;;;;;;5053368;28;20467;-57
2021/12/10 05:52:26;;;;;;;17.43;6.23;;;0.50;99.70;;;;;;5053945;28;20452;-62
2021/12/10 05:54:53;;;;;;;12.17;5.70;;;0.40;99.70;;;;;;5053246;28;20474;-62
2021/12/10 05:57:20;;;;;;;14.77;6.03;;;0.40;99.70;;;;;;5053563;28;20456;-60
2021/12/10 05:59:47;;;;;;;14.80;6.30;;;0.40;99.70;;;;;;5053289;28;20529;-61
2021/12/10 06:02:14;;;;;;;17.20;6.20;;;0.30;99.70;;;;;;5053701;28;20447;-60
2021/12/10 06:04:42;;;;;;;14.40;6.40;;;0.10;99.70;;;;;;5053035;28;20534;-57
2021/12/10 06:07:09;;;;;;;22.10;7.53;;;0.10;99.70;;;;;;5053171;28;20550;-60
2021/12/10 06:09:37;;;;;;;20.37;6.90;;;0.10;99.70;;;;;;5053215;28;20815;-59
2021/12/10 06:12:05;;;;;;;16.70;5.90;;;0.10;99.70;;;;;;5053761;28;20451;-59
2021/12/10 06:14:32;;;;;;;15.17;5.93;;;0.10;99.70;;;;;;5053364;28;20467;-58
2021/12/10 06:16:59;;;;;;;13.63;6.20;;;0.10;99.70;;;;;;5053777;28;20455;-63
2021/12/10 06:19:25;;;;;;;11.90;5.27;;;0.50;99.70;;;;;;5053680;28;20452;-55
2021/12/10 06:21:53;;;;;;;12.23;6.10;;;0.40;99.70;;;;;;5048588;28;20451;-56
2021/12/10 06:24:20;;;;;;;13.93;6.20;;;0.30;99.70;;;;;;5048026;28;21005;-61
2021/12/10 06:26:51;;;;;;;18.10;7.67;;;0.20;99.70;;;;;;5053307;28;20451;-56
2021/12/10 06:29:19;;;;;;;21.67;7.10;;;0.10;99.70;;;;;;5052946;28;20444;-58
2021/12/10 06:31:45;;;;;;;16.23;7.07;;;0.00;99.70;;;;;;5053384;28;20474;-61
2021/12/10 06:34:12;;;;;;;14.73;6.83;;;0.10;99.70;;;;;;5053019;28;20467;-61
2021/12/10 06:36:39;;;;;;;15.60;6.40;;;0.20;99.70;;;;;;5052462;28;20601;-60
2021/12/10 06:39:06;;;;;;;18.40;7.10;;;0.30;99.70;;;;;;5052499;28;20455;-61
2021/12/10 06:41:34;;;;;;;16.27;7.27;;;0.40;99.70;;;;;;5052454;28;20484;-61
2021/12/10 06:44:04;;;;;;;16.57;6.00;;;0.80;99.70;;;;;;5052627;28;20460;-62
2021/12/10 06:46:31;;;;;;;19.13;6.87;;;0.60;99.70;;;;;;5051824;28;20581;-60
2021/12/10 06:48:58;;;;;;;18.17;6.80;;;0.50;99.70;;;;;;5052536;28;20700;-61
2021/12/10 06:51:25;;;;;;;19.80;6.87;;;0.50;99.70;;;;;;5052602;28;20439;-60
2021/12/10 06:53:52;;;;;;;16.17;6.40;;;0.50;99.70;;;;;;5052707;28;20475;-59
2021/12/10 06:56:21;;;;;;;18.63;6.60;;;0.50;99.70;;;;;;5052038;28;20443;-62
2021/12/10 06:58:48;;;;;;;14.77;6.43;;;0.80;99.70;;;;;;5052714;28;20447;-61
2021/12/10 07:01:21;;;;;;;15.40;6.97;;;0.90;99.70;;;;;;5051940;28;21017;-59
2021/12/10 07:03:50;;;;;;;17.00;6.83;;;0.90;99.70;;;;;;5052579;28;20474;-59
2021/12/10 07:06:17;;;;;;;18.90;6.70;;;0.90;99.70;;;;;;5049100;28;20994;-60
2021/12/10 07:08:46;;;;;;;14.60;6.63;;;0.80;99.70;;;;;;5052254;28;20444;-59
2021/12/10 07:11:15;;;;;;;13.63;6.20;;;0.90;99.70;;;;;;5052625;28;20444;-61
2021/12/10 07:13:43;;;;;;;20.43;6.70;;;0.80;99.70;;;;;;5052906;28;20451;-59
2021/12/10 07:16:11;;;;;;;14.97;5.87;;;0.70;99.70;;;;;;5043813;28;20470;-64
2021/12/10 07:18:40;;;;;;;17.00;6.30;;;0.60;99.70;;;;;;5050122;28;20436;-60
2021/12/10 07:21:08;;;;;;;14.33;6.30;;;0.60;99.70;;;;;;5042165;28;20491;-59
2021/12/10 07:23:36;;;;;;;16.43;6.57;;;0.60;99.70;;;;;;5047236;28;20975;-62
2021/12/10 07:26:03;;;;;;;18.60;6.83;;;0.50;99.70;;;;;;5045129;28;20899;-62
2021/12/10 07:28:30;;;;;;;18.40;6.63;;;0.50;99.70;;;;;;5048760;28;20521;-60
2021/12/10 07:30:57;;;;;;;18.13;7.10;;;0.50;99.70;;;;;;5045800;28;20794;-63
2021/12/10 07:33:24;;;;;;;15.40;6.77;;;0.70;99.70;;;;;;5051798;28;20448;-60
2021/12/10 07:35:52;;;;;;;16.20;6.00;;;0.60;99.70;;;;;;5045705;28;20492;-59
2021/12/10 07:38:20;;;;;;;13.40;5.60;;;0.70;99.70;;;;;;5038437;28;20456;-58
2021/12/10 07:40:48;;;;;;;15.90;6.50;;;0.60;99.70;;;;;;5048597;28;20479;-58
2021/12/10 07:43:15;;;;;;;16.40;7.00;;;0.80;99.70;;;;;;5042817;28;20448;-60
2021/12/10 07:45:45;;;;;;;19.90;5.70;;;1.00;99.70;;;;;;5047684;28;20541;-60
2021/12/10 07:48:14;;;;;;;12.50;5.27;;;1.30;99.70;;;;;;5048732;28;20830;-63
2021/12/10 07:50:44;;;;;;;12.83;5.67;;;1.40;99.70;;;;;;5045812;28;20475;-60
2021/12/10 07:53:12;;;;;;;14.30;5.03;;;1.60;99.70;;;;;;5039185;28;20456;-59
2021/12/10 07:55:40;;;;;;;17.20;5.47;;;1.90;99.70;;;;;;5030950;28;20472;-59
2021/12/10 07:58:07;;;;;;;13.90;5.33;;;1.70;99.70;;;;;;5031607;28;20444;-59
2021/12/10 08:00:37;;;;;;;12.80;4.90;;;1.50;99.70;;;;;;5041735;28;20495;-57
2021/12/10 08:03:04;;;;;;;12.50;5.30;;;1.70;99.70;;;;;;5049279;28;20443;-62
2021/12/10 08:05:31;;;;;;;12.70;5.07;;;1.90;99.70;;;;;;5058688;28;20467;-63
2021/12/10 08:07:58;;;;;;;15.00;5.87;;;1.90;99.70;;;;;;5069745;28;20443;-59
2021/12/10 08:10:27;;;;;;;12.97;5.67;;;1.80;99.70;;;;;;5061358;28;20452;-63
2021/12/10 08:12:54;;;;;;;15.93;5.90;;;1.80;99.70;;;;;;5050863;28;20447;-63
2021/12/10 08:15:21;;;;;;;15.57;6.00;;;1.80;99.70;;;;;;5053582;28;20464;-62
2021/12/10 08:17:48;;;;;;;17.00;6.30;;;1.90;99.70;;;;;;5054884;28;20462;-63
2021/12/10 08:20:19;;;;;;;13.27;5.87;;;1.90;99.70;;;;;;5054710;28;20863;-62
2021/12/10 08:22:46;;;;;;;17.50;7.00;;;1.80;99.70;;;;;;5054694;28;20535;-63
2021/12/10 08:25:13;;;;;;;16.87;6.67;;;1.80;99.70;;;;;;5054199;28;20468;-63
2021/12/10 08:27:41;;;;;;;15.90;6.40;;;1.60;99.70;;;;;;5054729;28;21012;-61
2021/12/10 08:30:11;;;;;;;16.10;6.20;;;1.70;99.70;;;;;;5054544;28;20458;-61
2021/12/10 08:32:38;;;;;;;17.30;6.30;;;1.70;99.70;;;;;;5054747;28;20439;-59
2021/12/10 08:35:09;;;;;;;14.00;6.23;;;1.90;99.70;;;;;;5053671;28;20471;-62
2021/12/10 08:37:36;;;;;;;19.90;7.27;;;1.70;99.70;;;;;;5053089;28;20447;-60
2021/12/10 08:40:04;;;;;;;17.17;6.57;;;1.80;99.70;;;;;;5051108;28;20448;-61
2021/12/10 08:42:31;;;;;;;16.10;6.23;;;1.90;99.70;;;;;;5052859;28;20505;-62
2021/12/10 08:44:59;;;;;;;19.63;6.87;;;1.70;99.70;;;;;;5051251;28;20842;-61
2021/12/10 08:47:26;;;;;;;20.60;7.53;;;1.70;99.70;;;;;;5041610;28;20450;-58
2021/12/10 08:49:53;;;;;;;18.33;6.50;;;1.80;99.70;;;;;;5055368;28;20444;-60
2021/12/10 08:52:20;;;;;;;17.20;6.87;;;1.90;99.70;;;;;;5052432;28;20440;-61
2021/12/10 08:54:47;;;;;;;16.97;6.30;;;2.50;99.70;;;;;;5052882;28;20468;-58
2021/12/10 08:57:14;;;;;;;17.40;6.23;;;2.50;99.70;;;;;;5035507;28;20445;-61
2021/12/10 08:59:41;;;;;;;17.90;7.17;;;2.30;99.70;;;;;;5046394;28;20876;-59
2021/12/10 09:02:13;;;;;;;19.40;7.87;;;2.20;99.70;;;;;;5051853;28;20484;-56
2021/12/10 09:04:40;;;;;;;20.33;7.30;;;2.10;99.70;;;;;;5052085;28;20474;-58
2021/12/10 09:07:10;;;;;;;19.63;7.30;;;2.10;99.70;;;;;;5047987;28;20448;-59
2021/12/10 09:09:40;;;;;;;20.80;7.80;;;2.10;99.70;;;;;;5035607;28;20471;-60
2021/12/10 09:12:12;;;;;;;16.97;7.93;;;2.20;99.70;;;;;;5047362;28;20532;-60
2021/12/10 09:14:44;;;;;;;18.40;8.00;;;2.20;99.70;;;;;;5035418;28;20496;-63
2021/12/10 09:17:16;;;;;;;17.23;7.60;;;2.10;99.70;;;;;;5046669;28;20822;-61
2021/12/10 09:19:45;;;;;;;21.43;7.87;;;2.10;99.70;;;;;;5035252;28;20453;-63
2021/12/10 09:22:12;;;;;;;26.17;11.23;;;2.00;99.70;;;;;;5034987;28;20485;-62
2021/12/10 09:24:41;;;;;;;27.50;11.50;;;2.10;99.70;;;;;;5046275;28;20483;-60
2021/12/10 09:27:08;;;;;;;47.57;15.07;;;2.00;99.70;;;;;;5084691;22;20491;-61
2021/12/10 09:29:39;;;;;;;26.87;9.20;;;2.00;99.70;;;;;;5073384;28;20825;-61
2021/12/10 09:32:08;;;;;;;21.27;7.87;;;2.30;99.70;;;;;;5089962;28;20467;-62
2021/12/10 09:34:36;;;;;;;16.23;6.90;;;2.70;99.70;;;;;;5091470;28;20878;-63
2021/12/10 09:37:04;;;;;;;16.83;7.37;;;2.50;99.70;;;;;;5075308;28;20497;-62
2021/12/10 09:39:32;;;;;;;15.97;7.00;;;2.30;99.70;;;;;;5074224;28;20529;-60
2021/12/10 09:41:59;;;;;;;22.50;7.27;;;2.20;99.70;;;;;;5075207;28;20489;-57
2021/12/10 09:44:27;;;;;;;18.67;7.67;;;2.00;99.70;;;;;;5073807;28;20864;-61
2021/12/10 09:46:55;;;;;;;22.97;8.93;;;2.10;99.70;;;;;;5074826;28;20466;-59
2021/12/10 09:49:24;;;;;;;26.80;10.10;;;2.20;99.70;;;;;;5073579;28;20790;-60
2021/12/10 09:51:55;;;;;;;27.60;10.10;;;2.20;99.70;;;;;;5075677;28;20471;-61
2021/12/10 09:54:25;;;;;;;17.47;7.37;;;2.20;99.70;;;;;;5073606;28;20871;-62
2021/12/10 09:56:55;;;;;;;15.20;6.90;;;2.20;99.70;;;;;;5074098;28;20558;-61
2021/12/10 09:59:22;;;;;;;23.47;10.43;;;2.20;99.70;;;;;;5073961;28;20455;-59
2021/12/10 10:01:52;;;;;;;24.93;10.03;;;2.30;99.70;;;;;;5074921;28;20490;-59
2021/12/10 10:04:20;;;;;;;22.50;8.90;;;2.50;99.70;;;;;;5075765;28;20865;-61
2021/12/10 10:06:51;;;;;;;24.43;8.77;;;2.80;99.70;;;;;;5088545;28;20473;-62
2021/12/10 10:09:21;;;;;;;18.43;7.40;;;2.90;99.70;;;;;;5091014;28;20814;-61
2021/12/10 10:11:52;;;;;;;13.90;6.37;;;3.00;99.70;;;;;;5089878;28;20443;-62
2021/12/10 10:14:18;;;;;;;13.23;5.90;;;2.90;99.70;;;;;;5090965;28;20452;-61
2021/12/10 10:16:45;;;;;;;16.90;7.00;;;2.80;99.70;;;;;;5088834;28;20514;-63
2021/12/10 10:19:13;;;;;;;25.77;10.77;;;2.80;99.70;;;;;;5090730;28;20450;-62
2021/12/10 10:21:48;;;;;;;20.87;7.80;;;2.70;99.70;;;;;;5075294;28;20479;-62
2021/12/10 10:24:16;;;;;;;19.13;7.70;;;2.70;99.70;;;;;;5090586;28;20442;-62
2021/12/10 10:26:48;;;;;;;20.63;9.20;;;2.80;99.70;;;;;;5079768;28;20477;-62
2021/12/10 10:29:18;;;;;;;15.60;6.80;;;2.80;99.70;;;;;;5073015;28;20454;-62
2021/12/10 10:31:52;;;;;;;25.97;9.00;;;2.80;99.70;;;;;;5074456;28;20435;-62
2021/12/10 10:34:20;;;;;;;26.10;9.80;;;2.90;99.70;;;;;;5072888;28;20442;-61
2021/12/10 10:36:47;;;;;;;27.87;12.27;;;2.90;99.70;;;;;;5073279;28;20875;-62
2021/12/10 10:39:16;;;;;;;33.80;11.20;;;3.00;99.70;;;;;;5072917;28;20524;-62
2021/12/10 10:41:47;;;;;;;20.73;8.27;;;3.00;99.70;;;;;;5074052;28;20490;-63
2021/12/10 10:44:15;;;;;;;17.77;7.93;;;3.00;99.70;;;;;;5072937;28;20500;-62
2021/12/10 10:46:42;;;;;;;16.13;7.10;;;2.90;99.70;;;;;;5074479;28;20882;-62
2021/12/10 10:49:08;;;;;;;18.93;8.03;;;3.00;99.70;;;;;;5089787;28;20450;-63
2021/12/10 10:51:38;;;;;;;14.50;5.93;;;3.10;99.70;;;;;;5088521;28;20503;-62
2021/12/10 10:54:07;;;;;;;25.10;9.07;;;3.30;99.70;;;;;;5090024;28;20453;-62
2021/12/10 10:56:40;;;;;;;19.50;6.33;;;3.20;99.70;;;;;;5087983;28;20470;-62
2021/12/10 10:59:15;;;;;;;23.53;9.20;;;3.20;99.70;;;;;;5090117;28;20442;-62
2021/12/10 11:01:46;;;;;;;32.13;11.20;;;3.30;99.70;;;;;;5088287;28;20482;-63
2021/12/10 11:04:24;;;;;;;35.17;11.60;;;3.30;99.70;;;;;;5089910;28;20450;-62
2021/12/10 11:06:53;;;;;;;26.70;9.37;;;3.40;99.70;;;;;;5087526;28;20550;-61
2021/12/10 11:09:24;;;;;;;20.43;9.00;;;3.40;99.70;;;;;;5089951;28;20449;-62
2021/12/10 11:11:54;;;;;;;14.20;6.63;;;3.40;99.70;;;;;;5088254;28;20438;-62
2021/12/10 11:14:26;;;;;;;13.30;5.93;;;3.50;99.70;;;;;;5089488;28;20450;-61
2021/12/10 11:16:56;;;;;;;9.27;4.50;;;3.50;99.70;;;;;;5087907;28;20481;-63
2021/12/10 11:19:26;;;;;;;10.20;4.17;;;3.60;99.70;;;;;;5089620;28;20519;-62
2021/12/10 11:21:55;;;;;;;11.90;5.50;;;3.70;99.70;;;;;;5088048;28;20871;-62
2021/12/10 11:24:25;;;;;;;14.57;4.43;;;3.80;99.70;;;;;;5089312;28;20441;-60
2021/12/10 11:26:56;;;;;;;7.93;3.77;;;3.90;99.70;;;;;;5087613;28;20846;-62
2021/12/10 11:29:35;;;;;;;8.27;3.90;;;4.00;99.70;;;;;;5089598;28;20933;-64
2021/12/10 11:32:06;;;;;;;9.00;4.00;;;4.00;99.70;;;;;;5088217;28;20446;-62
2021/12/10 11:34:46;;;;;;;10.23;3.97;;;4.00;99.70;;;;;;5089245;28;20441;-62
2021/12/10 11:37:15;;;;;;;8.50;4.00;;;4.00;99.70;;;;;;5089163;28;20477;-62
2021/12/10 11:39:46;;;;;;;13.30;4.57;;;4.00;99.70;;;;;;5085092;28;22522;-62
2021/12/10 11:42:39;;;;;;;12.20;4.80;;;3.90;99.70;;;;;;5077328;28;20954;-62
2021/12/10 11:45:31;;;;;;;10.53;4.30;;;3.80;99.70;;;;;;5087529;28;20446;-64
2021/12/10 11:48:09;;;;;;;8.43;3.80;;;3.90;99.70;;;;;;5091263;28;20525;-65
2021/12/10 11:50:41;;;;;;;8.90;4.13;;;4.10;99.70;;;;;;5076185;28;20454;-65
2021/12/10 11:53:10;;;;;;;7.50;3.60;;;4.00;99.70;;;;;;5077346;28;20859;-64
2021/12/10 11:55:38;;;;;;;5.23;2.80;;;3.70;99.70;;;;;;5075800;28;20894;-65
2021/12/10 11:58:14;;;;;;;5.03;2.53;;;3.60;99.70;;;;;;5076765;28;20474;-62
2021/12/10 12:00:44;;;;;;;4.37;2.30;;;3.60;99.70;;;;;;5076015;28;20454;-65
2021/12/10 12:03:14;;;;;;;3.97;1.93;;;3.50;99.70;;;;;;5077181;28;20489;-64
2021/12/10 12:05:44;;;;;;;6.10;2.20;;;3.20;99.70;;;;;;5074836;28;20442;-64
2021/12/10 12:08:13;;;;;;;5.77;2.47;;;3.40;99.70;;;;;;5077109;28;20451;-64
2021/12/10 12:10:44;;;;;;;4.50;2.00;;;3.30;99.70;;;;;;5075673;28;20502;-64
2021/12/10 12:13:24;;;;;;;4.67;2.20;;;3.10;99.70;;;;;;5076987;28;20438;-64
2021/12/10 12:15:54;;;;;;;11.27;4.60;;;2.90;99.70;;;;;;5075136;28;20447;-64
2021/12/10 12:18:25;;;;;;;6.50;2.90;;;2.60;99.70;;;;;;5076984;28;20438;-64
2021/12/10 12:20:56;;;;;;;5.90;3.27;;;2.40;99.70;;;;;;5075623;28;20877;-66
2021/12/10 12:26:12;;;;;;;6.70;3.33;;;1.90;99.70;;;;;;5082436;28;20895;-65
2021/12/10 12:28:41;;;;;;;8.03;3.50;;;1.90;99.70;;;;;;5076674;28;20459;-65
2021/12/10 12:31:12;;;;;;;6.37;3.00;;;1.80;99.70;;;;;;5075305;28;20822;-65
2021/12/10 12:33:57;;;;;;;5.40;2.77;;;1.90;99.70;;;;;;5088132;28;20449;-60
2021/12/10 12:36:26;;;;;;;9.90;4.47;;;1.90;99.70;;;;;;5091359;28;20468;-64
2021/12/10 12:38:52;;;;;;;11.50;4.80;;;1.80;99.70;;;;;;5092028;28;20506;-65
2021/12/10 12:41:22;;;;;;;8.17;3.90;;;1.70;99.70;;;;;;5091913;28;20441;-61
2021/12/10 12:44:07;;;;;;;16.73;8.03;;;1.70;99.70;;;;;;5091613;28;20825;-63
2021/12/10 12:46:53;;;;;;;8.17;3.80;;;1.70;99.70;;;;;;5080664;28;20463;-63
2021/12/10 12:49:20;;;;;;;7.87;4.00;;;1.60;99.70;;;;;;5082734;28;20445;-63
2021/12/10 12:52:01;;;;;;;8.60;4.50;;;1.70;99.70;;;;;;5076784;28;20495;-64
2021/12/10 12:54:28;;;;;;;22.70;6.97;;;1.70;99.70;;;;;;5075239;28;20477;-62
2021/12/10 12:56:55;;;;;;;14.23;5.70;;;1.80;99.70;;;;;;5073995;28;20497;-62
2021/12/10 12:59:21;;;;;;;16.67;6.50;;;1.70;99.70;;;;;;5074574;28;20443;-63
2021/12/10 13:01:54;;;;;;;10.57;4.13;;;1.70;99.70;;;;;;5075906;28;20473;-62
2021/12/10 13:04:29;;;;;;;8.77;3.80;;;1.80;99.70;;;;;;5075033;28;20446;-62
2021/12/10 13:06:58;;;;;;;16.70;5.57;;;1.90;99.70;;;;;;5075340;28;20474;-63
2021/12/10 13:09:36;;;;;;;10.17;5.00;;;2.00;99.70;;;;;;5081316;28;20457;-64
2021/12/10 13:12:08;;;;;;;6.83;3.80;;;2.10;99.70;;;;;;5085637;28;20449;-62
2021/12/10 13:14:47;;;;;;;8.50;3.70;;;1.90;99.70;;;;;;5082144;28;20439;-63
2021/12/10 13:17:18;;;;;;;9.13;3.70;;;2.10;99.70;;;;;;5089747;28;20462;-62
2021/12/10 13:19:45;;;;;;;5.33;2.90;;;2.10;99.70;;;;;;5092875;28;20442;-61
2021/12/10 13:22:16;;;;;;;9.23;3.30;;;2.10;99.70;;;;;;5093048;28;20485;-63
2021/12/10 13:24:47;;;;;;;5.77;3.50;;;2.20;99.70;;;;;;5083170;28;20455;-63
2021/12/10 13:27:17;;;;;;;8.93;3.23;;;2.00;99.70;;;;;;5072221;28;21062;-64
2021/12/10 13:29:44;;;;;;;6.90;3.40;;;2.10;99.70;;;;;;5081944;28;20462;-61
2021/12/10 13:32:12;;;;;;;8.20;3.60;;;2.10;99.70;;;;;;5071340;28;20462;-63
2021/12/10 13:34:40;;;;;;;10.10;4.07;;;2.00;99.70;;;;;;5084884;28;20566;-63
2021/12/10 13:37:11;;;;;;;12.57;4.50;;;1.70;99.70;;;;;;5082718;28;20462;-64
2021/12/10 13:39:38;;;;;;;10.70;4.53;;;1.80;99.70;;;;;;5088273;28;20449;-63
2021/12/10 13:42:05;;;;;;;33.40;11.10;;;2.20;99.70;;;;;;5085811;28;20478;-62
2021/12/10 13:44:41;;;;;;;35.80;13.17;;;2.30;99.70;;;;;;5089353;28;20447;-62
2021/12/10 13:47:10;;;;;;;21.13;8.47;;;2.20;99.70;;;;;;5089913;28;20466;-62
2021/12/10 13:49:48;;;;;;;28.33;10.43;;;2.10;99.70;;;;;;5089748;28;20981;-62
2021/12/10 13:52:32;;;;;;;21.30;9.03;;;2.10;99.70;;;;;;5091229;28;20824;-64
2021/12/10 13:54:59;;;;;;;23.53;7.00;;;2.00;99.70;;;;;;5089373;28;21134;-60
2021/12/10 13:57:26;;;;;;;11.57;5.80;;;2.10;99.70;;;;;;5089604;28;20469;-63
2021/12/10 13:59:57;;;;;;;12.83;4.63;;;2.10;99.70;;;;;;5074980;28;20453;-64
2021/12/10 14:02:33;;;;;;;14.77;4.63;;;2.10;99.70;;;;;;5080690;28;20535;-62
2021/12/10 14:05:17;;;;;;;9.00;3.93;;;2.30;99.70;;;;;;5074351;28;20442;-63
2021/12/10 14:07:51;;;;;;;9.30;3.90;;;2.30;99.70;;;;;;5074634;28;20466;-63
2021/12/10 14:10:29;;;;;;;10.40;3.93;;;2.50;99.70;;;;;;5073309;28;20457;-62
2021/12/10 14:12:57;;;;;;;10.00;4.60;;;2.50;99.70;;;;;;5074590;28;21027;-62
2021/12/10 14:15:28;;;;;;;8.30;4.20;;;2.40;99.70;;;;;;5073041;28;20457;-63
2021/12/10 14:17:58;;;;;;;8.67;4.30;;;2.40;99.70;;;;;;5074592;28;21008;-62
2021/12/10 14:20:30;;;;;;;13.20;4.40;;;2.40;99.70;;;;;;5085944;28;20445;-64
2021/12/10 14:22:59;;;;;;;10.03;4.70;;;2.40;99.70;;;;;;5074508;28;20514;-64
2021/12/10 14:25:32;;;;;;;9.00;4.87;;;2.30;99.70;;;;;;5083358;28;20446;-62
2021/12/10 14:28:03;;;;;;;13.37;6.23;;;2.40;99.70;;;;;;5088802;28;20474;-64
2021/12/10 14:30:34;;;;;;;12.83;5.10;;;2.50;99.70;;;;;;5079520;28;20508;-61
2021/12/10 14:33:10;;;;;;;10.00;4.93;;;2.50;99.70;;;;;;5082178;28;20446;-62
2021/12/10 14:35:49;;;;;;;11.10;5.67;;;2.60;99.70;;;;;;5082296;28;20453;-62
2021/12/10 14:38:28;;;;;;;11.73;4.97;;;2.50;99.70;;;;;;5077852;28;20936;-61
2021/12/10 14:41:00;;;;;;;16.10;6.50;;;2.50;99.70;;;;;;5089711;28;20502;-64
2021/12/10 14:43:30;;;;;;;14.60;6.40;;;2.60;99.70;;;;;;5086212;28;20505;-64
2021/12/10 14:46:13;;;;;;;12.37;6.00;;;2.60;99.70;;;;;;5079969;28;20966;-61
2021/12/10 14:49:01;;;;;;;12.43;4.93;;;2.60;99.70;;;;;;5075733;28;20449;-63
2021/12/10 14:51:30;;;;;;;13.50;6.20;;;2.60;99.70;;;;;;5073991;28;20828;-64
2021/12/10 14:54:05;;;;;;;12.80;5.60;;;2.50;99.70;;;;;;5072890;28;20496;-64
2021/12/10 14:56:36;;;;;;;13.90;5.70;;;2.50;99.70;;;;;;5073459;28;20462;-63
2021/12/10 14:59:13;;;;;;;13.90;6.53;;;2.60;99.70;;;;;;5076446;28;20454;-62
2021/12/10 15:01:45;;;;;;;13.13;5.80;;;2.50;99.70;;;;;;5088955;28;20968;-62
2021/12/10 15:04:37;;;;;;;18.47;6.50;;;2.50;99.70;;;;;;5089689;28;20481;-64
2021/12/10 15:07:13;;;;;;;14.37;6.47;;;2.40;99.70;;;;;;5072375;28;20473;-62
2021/12/10 15:09:57;;;;;;;15.17;6.50;;;2.40;99.70;;;;;;5072461;28;20457;-61
2021/12/10 15:12:44;;;;;;;15.57;6.10;;;2.50;99.70;;;;;;5072706;28;20462;-64
2021/12/10 15:15:11;;;;;;;13.97;6.40;;;2.50;99.70;;;;;;5071824;28;20451;-64
2021/12/10 15:17:38;;;;;;;20.63;8.57;;;2.50;99.70;;;;;;5072629;28;20470;-62
2021/12/10 15:20:28;;;;;;;14.60;7.03;;;2.60;99.70;;;;;;5073064;28;20444;-63
2021/12/10 15:22:57;;;;;;;17.33;7.30;;;2.60;99.70;;;;;;5072950;28;20485;-63
2021/12/10 15:25:27;;;;;;;13.97;6.03;;;2.70;99.70;;;;;;5071955;28;20505;-64
2021/12/10 15:27:57;;;;;;;12.30;5.80;;;2.80;99.70;;;;;;5127279;22;20486;-59
2021/12/10 15:30:28;;;;;;;13.60;5.80;;;2.80;99.70;;;;;;5062836;28;20467;-61
2021/12/10 15:32:58;;;;;;;17.73;7.27;;;2.90;99.70;;;;;;5065423;28;20446;-60
2021/12/10 15:35:31;;;;;;;13.10;5.73;;;2.80;99.70;;;;;;5065042;28;20462;-60
2021/12/10 15:38:05;;;;;;;12.17;5.77;;;2.80;99.70;;;;;;5056992;28;20996;-58
2021/12/10 15:40:39;;;;;;;9.80;5.17;;;2.80;99.70;;;;;;5053106;28;20435;-59
2021/12/10 15:43:08;;;;;;;14.20;5.13;;;2.80;99.70;;;;;;5053796;28;20483;-58
2021/12/10 15:45:39;;;;;;;8.90;4.50;;;2.80;99.70;;;;;;5053755;28;20444;-60
2021/12/10 15:48:08;;;;;;;10.30;5.07;;;2.90;99.70;;;;;;5059204;28;20482;-63
2021/12/10 15:50:40;;;;;;;11.53;5.00;;;2.90;99.70;;;;;;5066766;28;20434;-58
2021/12/10 15:53:12;;;;;;;11.07;4.80;;;3.00;99.70;;;;;;5059703;28;20500;-58
2021/12/10 15:55:42;;;;;;;8.93;5.13;;;3.00;99.70;;;;;;5059268;28;20448;-60
2021/12/10 15:58:13;;;;;;;8.30;4.10;;;2.90;99.70;;;;;;5052472;28;20487;-59
2021/12/10 16:00:41;;;;;;;7.30;3.80;;;3.00;99.70;;;;;;5056382;28;20522;-59
2021/12/10 16:03:10;;;;;;;6.10;3.50;;;3.10;99.70;;;;;;5059323;28;20506;-63
2021/12/10 16:05:39;;;;;;;6.13;3.50;;;3.00;99.70;;;;;;5058376;28;20459;-63
2021/12/10 16:08:05;;;;;;;8.30;4.10;;;3.20;99.70;;;;;;5063369;28;21450;-63
2021/12/10 16:10:37;;;;;;;6.53;4.00;;;3.10;99.70;;;;;;5063367;28;20471;-61
2021/12/10 16:13:08;;;;;;;9.60;4.57;;;3.10;99.70;;;;;;5065526;28;20934;-66
2021/12/10 16:15:39;;;;;;;8.03;4.00;;;3.10;99.70;;;;;;5059690;28;20435;-63
2021/12/10 16:18:07;;;;;;;8.90;5.27;;;3.00;99.70;;;;;;5053153;28;20467;-62
2021/12/10 16:20:44;;;;;;;9.13;4.40;;;3.10;99.70;;;;;;5051413;28;21028;-59
2021/12/10 16:23:17;;;;;;;6.93;4.00;;;3.10;99.70;;;;;;5052995;28;20491;-63
2021/12/10 16:25:46;;;;;;;9.53;4.03;;;3.10;99.70;;;;;;5052239;28;20458;-59
2021/12/10 16:28:14;;;;;;;6.83;4.07;;;3.30;99.70;;;;;;5058304;28;20495;-60
2021/12/10 16:30:46;;;;;;;7.73;4.23;;;3.40;99.70;;;;;;5063546;28;20458;-60
2021/12/10 16:33:14;;;;;;;7.93;4.97;;;3.40;99.70;;;;;;5052219;28;20471;-62
2021/12/10 16:35:43;;;;;;;9.73;4.23;;;3.50;99.70;;;;;;5056841;28;20451;-62
2021/12/10 16:38:13;;;;;;;8.67;4.70;;;3.40;99.70;;;;;;5055717;28;20507;-60
2021/12/10 16:40:43;;;;;;;7.17;4.40;;;3.50;99.70;;;;;;5056879;28;20458;-59
2021/12/10 16:43:16;;;;;;;7.40;4.40;;;3.60;99.70;;;;;;5053856;28;21033;-60
2021/12/10 16:45:44;;;;;;;8.47;4.97;;;3.70;99.70;;;;;;5070579;28;20467;-60
2021/12/10 16:48:19;;;;;;;7.50;4.00;;;3.70;99.70;;;;;;5072176;28;20463;-62
2021/12/10 16:50:47;;;;;;;7.57;4.00;;;3.60;99.70;;;;;;5067367;28;20462;-61
2021/12/10 16:53:14;;;;;;;7.33;3.70;;;3.60;99.70;;;;;;5055460;28;20443;-60
2021/12/10 16:55:41;;;;;;;9.70;4.77;;;3.50;99.70;;;;;;5068788;28;20938;-60
2021/12/10 16:58:14;;;;;;;8.20;4.13;;;3.50;99.70;;;;;;5061146;28;20475;-60
2021/12/10 17:00:44;;;;;;;10.27;5.30;;;3.60;99.70;;;;;;5072095;28;20494;-60
2021/12/10 17:03:15;;;;;;;15.57;6.10;;;3.60;99.70;;;;;;5072364;28;20470;-62
2021/12/10 17:05:43;;;;;;;11.07;5.00;;;3.60;99.70;;;;;;5071190;28;20439;-61
2021/12/10 17:08:19;;;;;;;12.83;6.60;;;3.60;99.70;;;;;;5072141;28;20459;-64
2021/12/10 17:10:49;;;;;;;13.40;6.67;;;3.70;99.70;;;;;;5071790;28;20446;-62
2021/12/10 17:13:23;;;;;;;12.20;6.47;;;3.80;99.70;;;;;;5069179;28;20865;-60
2021/12/10 17:15:50;;;;;;;13.13;7.20;;;3.90;99.70;;;;;;5067218;28;20482;-61
2021/12/10 17:18:22;;;;;;;22.10;8.83;;;3.90;99.70;;;;;;5067090;28;20886;-62
2021/12/10 17:20:52;;;;;;;9.27;5.10;;;3.80;99.70;;;;;;5061915;28;20439;-63
2021/12/10 17:23:21;;;;;;;7.57;4.80;;;3.90;99.70;;;;;;5061816;28;20485;-60
2021/12/10 17:25:52;;;;;;;10.83;5.60;;;3.90;99.70;;;;;;5061309;28;20467;-60
2021/12/10 17:28:23;;;;;;;9.73;5.07;;;3.80;99.70;;;;;;5070165;28;20475;-60
2021/12/10 17:30:52;;;;;;;8.80;4.50;;;3.70;99.70;;;;;;5068754;28;20447;-58
2021/12/10 17:33:25;;;;;;;11.70;4.40;;;3.80;99.70;;;;;;5062238;28;20440;-65
2021/12/10 17:35:54;;;;;;;7.70;4.30;;;3.70;99.70;;;;;;5066448;28;20439;-61
2021/12/10 17:38:21;;;;;;;9.07;4.90;;;3.90;99.70;;;;;;5064167;28;20460;-58
2021/12/10 17:40:52;;;;;;;11.00;5.90;;;4.00;99.70;;;;;;5055015;28;20451;-58
2021/12/10 17:43:22;;;;;;;12.17;5.60;;;4.00;99.70;;;;;;5056322;28;20846;-56
2021/12/10 17:45:56;;;;;;;11.20;5.20;;;4.00;99.70;;;;;;5055241;28;20512;-57
2021/12/10 17:48:29;;;;;;;8.93;4.70;;;3.90;99.70;;;;;;5061515;28;20562;-56
2021/12/10 17:50:57;;;;;;;10.63;5.17;;;4.00;99.70;;;;;;5059842;28;20444;-62
2021/12/10 17:53:25;;;;;;;12.70;6.17;;;3.90;99.70;;;;;;5072149;28;20446;-58
2021/12/10 17:55:55;;;;;;;7.93;4.00;;;3.90;99.70;;;;;;5068274;28;21003;-58
2021/12/10 17:58:26;;;;;;;5.70;3.40;;;3.90;99.70;;;;;;5069080;28;20466;-58
2021/12/10 18:00:57;;;;;;;7.53;3.60;;;3.70;99.70;;;;;;5067717;28;20446;-59
2021/12/10 18:03:30;;;;;;;7.30;4.10;;;3.70;99.70;;;;;;5073002;28;20506;-58
2021/12/10 18:05:57;;;;;;;6.93;3.60;;;3.70;99.70;;;;;;5072274;28;20836;-63